Fulda — V2GL3 — position and weather

sailwx.info

Track history (hours):
 
Tides and Currents Weather Stations Pressure Air Temp Water Temp Dewpoint Dewpoint Depression Visibility Wind Speed Wind Dir Waves Ship Positions

Fulda

Last reported at 2018-Jan-18 22:02 UTC. Time now 2018-Jan-20 19:13 UTC.
Position N 42°50' E 010°35'.

Length 100 m; draft 5.6 m.

Type: Ship. MMSI: 304010995.

Date/timePositionNaut miles runAvg speedWind from/ knotsBaromVisibWave heightAir tempDewpointWater temp
2018-Jan-18 22:02N 42°50' E 010°35'110.2
2018-Jan-18 21:56N 42°49' E 010°35'1610.6
2018-Jan-18 20:26N 42°33' E 010°33'  
2018-Jan-11 03:28N 43°41' W 006°16'3 5.5
2018-Jan-11 02:55N 43°41' W 006°12'2 4.8
2018-Jan-11 02:25N 43°41' W 006°08'2 3.7
2018-Jan-11 02:00N 43°41' W 006°06'2 4.0
2018-Jan-11 01:28N 43°42' W 006°03'2 4.5
2018-Jan-11 00:59N 43°42' W 006°00'5 4.1
2018-Jan-10 23:52N 43°42' W 005°54'6 4.3
2018-Jan-10 22:33N 43°40' W 005°47'1 6.0
2018-Jan-10 22:23N 43°40' W 005°46'3 7.1
2018-Jan-10 21:54N 43°38' W 005°42'4 7.5
2018-Jan-10 21:25N 43°34' W 005°40'1 1.1
2018-Jan-10 20:26N 43°34' W 005°42'0 0.0
2018-Jan-10 19:56N 43°34' W 005°42'0 0.0
2018-Jan-10 19:26N 43°34' W 005°42'0 0.0
2018-Jan-10 18:56N 43°34' W 005°42'0 0.0
2018-Jan-10 18:26N 43°34' W 005°42'0 0.0
2018-Jan-10 17:50N 43°34' W 005°42'0 0.0
2018-Jan-10 17:14N 43°34' W 005°42'0 0.0
2018-Jan-10 16:56N 43°34' W 005°42'0 0.0
2018-Jan-10 15:50N 43°34' W 005°42'0 0.0
2018-Jan-10 12:50N 43°34' W 005°42'0 0.0
2018-Jan-10 12:26N 43°34' W 005°42'0 0.0
2018-Jan-10 11:56N 43°34' W 005°42'0 0.0
2018-Jan-10 11:20N 43°34' W 005°42'0 0.0
2018-Jan-10 10:56N 43°34' W 005°42'0 0.0
2018-Jan-10 10:20N 43°34' W 005°42'0 0.0
2018-Jan-10 09:56N 43°34' W 005°42'0 0.0
2018-Jan-10 09:26N 43°34' W 005°42'0 0.0
2018-Jan-10 08:50N 43°34' W 005°42'0 0.0
2018-Jan-10 08:08N 43°34' W 005°42'0 0.0
2018-Jan-10 07:32N 43°34' W 005°42'0 0.0
2018-Jan-10 07:26N 43°34' W 005°42'0 0.0
2018-Jan-10 06:56N 43°34' W 005°42'0 0.0
2018-Jan-10 06:26N 43°34' W 005°42'0 0.0
2018-Jan-10 05:56N 43°34' W 005°42'0 0.0
2018-Jan-10 05:26N 43°34' W 005°42'0 0.0
2018-Jan-10 04:56N 43°34' W 005°42'0 0.0
2018-Jan-10 04:26N 43°34' W 005°42'0 0.0
2018-Jan-10 03:56N 43°34' W 005°42'0 0.0
2018-Jan-10 03:26N 43°34' W 005°42'0 0.0
2018-Jan-10 02:56N 43°34' W 005°42'0 0.0
2018-Jan-10 02:26N 43°34' W 005°42'0 0.0
2018-Jan-10 01:50N 43°34' W 005°42'0 0.0
2018-Jan-09 21:02N 43°34' W 005°42'0 0.1
2018-Jan-09 20:56N 43°34' W 005°42'0 0.3
2018-Jan-09 20:14N 43°34' W 005°42'0 0.0
2018-Jan-09 19:56N 43°34' W 005°42'0 0.0
2018-Jan-09 19:26N 43°34' W 005°42'0 0.0
2018-Jan-09 18:56N 43°34' W 005°42'0 0.0
2018-Jan-09 18:20N 43°34' W 005°42'0 0.0
2018-Jan-09 17:56N 43°34' W 005°42'0 0.0
2018-Jan-09 14:56N 43°34' W 005°42'0 0.0
2018-Jan-09 14:14N 43°34' W 005°42'0 0.0
2018-Jan-09 13:32N 43°34' W 005°42'0 0.0
2018-Jan-09 13:26N 43°34' W 005°42'0 0.0
2018-Jan-09 12:56N 43°34' W 005°42'0 0.0
2018-Jan-09 12:26N 43°34' W 005°42'0 0.0
2018-Jan-09 11:56N 43°34' W 005°42'0 0.0
2018-Jan-09 11:26N 43°34' W 005°42'0 0.0
2018-Jan-09 10:56N 43°34' W 005°42'0 0.0
2018-Jan-09 10:26N 43°34' W 005°42'0 0.0
2018-Jan-09 09:56N 43°34' W 005°42'0 0.0
2018-Jan-09 09:26N 43°34' W 005°42'0 0.0
2018-Jan-09 08:56N 43°34' W 005°42'0 0.0
2018-Jan-09 08:26N 43°34' W 005°42'0 0.0
2018-Jan-09 07:56N 43°34' W 005°42'0 0.0
2018-Jan-09 07:26N 43°34' W 005°42'0 0.0
2018-Jan-09 06:56N 43°34' W 005°42'0 0.0
2018-Jan-09 06:26N 43°34' W 005°42'0 0.0
2018-Jan-09 05:56N 43°34' W 005°42'0 0.0
2018-Jan-09 05:26N 43°34' W 005°42'0 0.0
2018-Jan-09 04:56N 43°34' W 005°42'0 0.0
2018-Jan-09 04:26N 43°34' W 005°42'0 0.0
2018-Jan-09 03:56N 43°34' W 005°42'0 0.0
2018-Jan-09 03:20N 43°34' W 005°42'0 0.0
2018-Jan-09 02:56N 43°34' W 005°42'0 0.0
2018-Jan-09 02:26N 43°34' W 005°42'0 0.0
2018-Jan-09 01:56N 43°34' W 005°42'0 0.0
2018-Jan-09 01:26N 43°34' W 005°42'  
Track history (hours):
 
Tides and Currents Weather Stations Pressure Air Temp Water Temp Dewpoint Dewpoint Depression Visibility Wind Speed Wind Dir Waves Ship Positions

Fulda

Last reported at 2018-Jan-18 22:02 UTC. Time now 2018-Jan-20 19:13 UTC.
Position N 42°50' E 010°35'.

Length 100 m; draft 5.6 m.

Type: Ship. MMSI: 304010995.

Date/timePositionNaut miles runAvg speedWind from/ knotsBaromVisibWave heightAir tempDewpointWater temp
2018-Jan-18 22:02N 42°50' E 010°35'110.2
2018-Jan-18 21:56N 42°49' E 010°35'1610.6
2018-Jan-18 20:26N 42°33' E 010°33'  
2018-Jan-11 03:28N 43°41' W 006°16'3 5.5
2018-Jan-11 02:55N 43°41' W 006°12'2 4.8
2018-Jan-11 02:25N 43°41' W 006°08'2 3.7
2018-Jan-11 02:00N 43°41' W 006°06'2 4.0
2018-Jan-11 01:28N 43°42' W 006°03'2 4.5
2018-Jan-11 00:59N 43°42' W 006°00'5 4.1
2018-Jan-10 23:52N 43°42' W 005°54'6 4.3
2018-Jan-10 22:33N 43°40' W 005°47'1 6.0
2018-Jan-10 22:23N 43°40' W 005°46'3 7.1
2018-Jan-10 21:54N 43°38' W 005°42'4 7.5
2018-Jan-10 21:25N 43°34' W 005°40'1 1.1
2018-Jan-10 20:26N 43°34' W 005°42'0 0.0
2018-Jan-10 19:56N 43°34' W 005°42'0 0.0
2018-Jan-10 19:26N 43°34' W 005°42'0 0.0
2018-Jan-10 18:56N 43°34' W 005°42'0 0.0
2018-Jan-10 18:26N 43°34' W 005°42'0 0.0
2018-Jan-10 17:50N 43°34' W 005°42'0 0.0
2018-Jan-10 17:14N 43°34' W 005°42'0 0.0
2018-Jan-10 16:56N 43°34' W 005°42'0 0.0
2018-Jan-10 15:50N 43°34' W 005°42'0 0.0
2018-Jan-10 12:50N 43°34' W 005°42'0 0.0
2018-Jan-10 12:26N 43°34' W 005°42'0 0.0
2018-Jan-10 11:56N 43°34' W 005°42'0 0.0
2018-Jan-10 11:20N 43°34' W 005°42'0 0.0
2018-Jan-10 10:56N 43°34' W 005°42'0 0.0
2018-Jan-10 10:20N 43°34' W 005°42'0 0.0
2018-Jan-10 09:56N 43°34' W 005°42'0 0.0
2018-Jan-10 09:26N 43°34' W 005°42'0 0.0
2018-Jan-10 08:50N 43°34' W 005°42'0 0.0
2018-Jan-10 08:08N 43°34' W 005°42'0 0.0
2018-Jan-10 07:32N 43°34' W 005°42'0 0.0
2018-Jan-10 07:26N 43°34' W 005°42'0 0.0
2018-Jan-10 06:56N 43°34' W 005°42'0 0.0
2018-Jan-10 06:26N 43°34' W 005°42'0 0.0
2018-Jan-10 05:56N 43°34' W 005°42'0 0.0
2018-Jan-10 05:26N 43°34' W 005°42'0 0.0
2018-Jan-10 04:56N 43°34' W 005°42'0 0.0
2018-Jan-10 04:26N 43°34' W 005°42'0 0.0
2018-Jan-10 03:56N 43°34' W 005°42'0 0.0
2018-Jan-10 03:26N 43°34' W 005°42'0 0.0
2018-Jan-10 02:56N 43°34' W 005°42'0 0.0
2018-Jan-10 02:26N 43°34' W 005°42'0 0.0
2018-Jan-10 01:50N 43°34' W 005°42'0 0.0
2018-Jan-09 21:02N 43°34' W 005°42'0 0.1
2018-Jan-09 20:56N 43°34' W 005°42'0 0.3
2018-Jan-09 20:14N 43°34' W 005°42'0 0.0
2018-Jan-09 19:56N 43°34' W 005°42'0 0.0
2018-Jan-09 19:26N 43°34' W 005°42'0 0.0
2018-Jan-09 18:56N 43°34' W 005°42'0 0.0
2018-Jan-09 18:20N 43°34' W 005°42'0 0.0
2018-Jan-09 17:56N 43°34' W 005°42'0 0.0
2018-Jan-09 14:56N 43°34' W 005°42'0 0.0
2018-Jan-09 14:14N 43°34' W 005°42'0 0.0
2018-Jan-09 13:32N 43°34' W 005°42'0 0.0
2018-Jan-09 13:26N 43°34' W 005°42'0 0.0
2018-Jan-09 12:56N 43°34' W 005°42'0 0.0
2018-Jan-09 12:26N 43°34' W 005°42'0 0.0
2018-Jan-09 11:56N 43°34' W 005°42'0 0.0
2018-Jan-09 11:26N 43°34' W 005°42'0 0.0
2018-Jan-09 10:56N 43°34' W 005°42'0 0.0
2018-Jan-09 10:26N 43°34' W 005°42'0 0.0
2018-Jan-09 09:56N 43°34' W 005°42'0 0.0
2018-Jan-09 09:26N 43°34' W 005°42'0 0.0
2018-Jan-09 08:56N 43°34' W 005°42'0 0.0
2018-Jan-09 08:26N 43°34' W 005°42'0 0.0
2018-Jan-09 07:56N 43°34' W 005°42'0 0.0
2018-Jan-09 07:26N 43°34' W 005°42'0 0.0
2018-Jan-09 06:56N 43°34' W 005°42'0 0.0
2018-Jan-09 06:26N 43°34' W 005°42'0 0.0
2018-Jan-09 05:56N 43°34' W 005°42'0 0.0
2018-Jan-09 05:26N 43°34' W 005°42'0 0.0
2018-Jan-09 04:56N 43°34' W 005°42'0 0.0
2018-Jan-09 04:26N 43°34' W 005°42'0 0.0
2018-Jan-09 03:56N 43°34' W 005°42'0 0.0
2018-Jan-09 03:20N 43°34' W 005°42'0 0.0
2018-Jan-09 02:56N 43°34' W 005°42'0 0.0
2018-Jan-09 02:26N 43°34' W 005°42'0 0.0
2018-Jan-09 01:56N 43°34' W 005°42'0 0.0
2018-Jan-09 01:26N 43°34' W 005°42'  

Dump ship's entire track history